TAF Text Data
IDs:
Format:
Raw Decoded Include METAR

Data at: 1525 UTC 15 Oct 2018

KDHT 151453Z AUTO 02016KT 10SM CLR 01/M08 A3042 RMK AO2 SLP314 T00111078 53009

KDHT 151125Z 1512/1612 01014KT P6SM OVC060
  FM151900 03011KT P6SM BKN100
  FM160000 04009KT P6SM FEW200
  FM160600 VRB06KT P6SM SKC